createdAt,value
2022-12-18T00:00:30.321Z,102493.22
2022-12-18T00:02:59.146Z,102491.97
2022-12-18T00:05:27.945Z,102495.19
2022-12-18T00:07:56.682Z,102494.94
2022-12-18T00:10:25.313Z,102495.81
2022-12-18T00:12:55.463Z,102501.72
2022-12-18T00:15:24.159Z,102496.03
2022-12-18T00:17:53.076Z,102497.53
2022-12-18T00:20:26.582Z,102505.31
2022-12-18T00:22:55.478Z,102496.03
2022-12-18T00:25:25.463Z,102499.84
2022-12-18T00:27:55.711Z,102493.66
2022-12-18T00:30:24.725Z,102491.81
2022-12-18T00:32:53.472Z,102483.06
2022-12-18T00:35:22.194Z,102484.03
2022-12-18T00:37:51.229Z,102484.88
2022-12-18T00:40:20.024Z,102484.53
2022-12-18T00:42:56.888Z,102464.28
2022-12-18T00:45:28.410Z,102471.41
2022-12-18T00:47:59.869Z,102480.47
2022-12-18T00:50:29.032Z,102480.94
2022-12-18T00:52:58.378Z,102487.78
2022-12-18T00:55:27.017Z,102481.63
2022-12-18T00:57:56.243Z,102478.31
2022-12-18T01:00:28.869Z,102480.81
2022-12-18T01:02:57.645Z,102480.97
2022-12-18T01:05:26.443Z,102481.53
2022-12-18T01:07:55.165Z,102483.00
2022-12-18T01:10:23.858Z,102490.81
2022-12-18T01:12:52.829Z,102486.28
2022-12-18T01:15:22.533Z,102495.75
2022-12-18T01:17:55.402Z,102482.91
2022-12-18T01:20:24.393Z,102479.56
2022-12-18T01:22:53.099Z,102474.44
2022-12-18T01:25:21.787Z,102469.38
2022-12-18T01:27:50.424Z,102477.41
2022-12-18T01:30:19.174Z,102477.38
2022-12-18T01:32:49.186Z,102473.94
2022-12-18T01:35:19.596Z,102481.97
2022-12-18T01:37:48.289Z,102483.75
2022-12-18T01:40:17.244Z,102465.81
2022-12-18T01:42:46.058Z,102453.44
2022-12-18T01:45:27.998Z,102456.28
2022-12-18T01:47:59.174Z,102456.94
2022-12-18T01:50:35.033Z,102469.19
2022-12-18T01:53:09.221Z,102471.53
2022-12-18T01:55:42.998Z,102471.72
2022-12-18T01:58:13.211Z,102487.09
2022-12-18T02:00:42.156Z,102488.22
2022-12-18T02:03:11.213Z,102484.00
2022-12-18T02:05:46.667Z,102488.75
2022-12-18T02:08:22.535Z,102490.25
2022-12-18T02:10:59.288Z,102487.16
2022-12-18T02:13:37.594Z,102488.25
2022-12-18T02:16:15.186Z,102485.13
2022-12-18T02:18:47.553Z,102483.59
2022-12-18T02:21:30.848Z,102477.78
2022-12-18T02:24:14.237Z,102482.34
2022-12-18T02:26:50.061Z,102471.97
2022-12-18T02:29:27.464Z,102463.81
2022-12-18T02:31:59.521Z,102464.84
2022-12-18T02:34:33.611Z,102459.44
2022-12-18T02:37:06.268Z,102464.84
2022-12-18T02:39:38.357Z,102457.41
2022-12-18T02:42:09.206Z,102462.53
2022-12-18T02:44:43.974Z,102469.22
2022-12-18T02:47:17.653Z,102466.28
2022-12-18T02:49:55.666Z,102468.41
2022-12-18T02:52:33.907Z,102475.22
2022-12-18T02:55:14.711Z,102474.53
2022-12-18T02:57:52.274Z,102462.09
2022-12-18T03:00:24.191Z,102464.66
2022-12-18T03:03:00.059Z,102468.63
2022-12-18T03:05:36.258Z,102472.50
2022-12-18T03:08:10.073Z,102474.81
2022-12-18T03:10:45.287Z,102469.75
2022-12-18T03:13:20.539Z,102459.72
2022-12-18T03:15:53.659Z,102455.63
2022-12-18T03:18:26.352Z,102451.75
2022-12-18T03:20:58.705Z,102448.75
2022-12-18T03:23:31.922Z,102453.25
2022-12-18T03:26:09.341Z,102446.84
2022-12-18T03:28:44.451Z,102446.44
2022-12-18T03:31:15.477Z,102451.13
2022-12-18T03:33:48.887Z,102454.34
2022-12-18T03:36:17.927Z,102455.47
2022-12-18T03:38:46.717Z,102458.53
2022-12-18T03:41:22.030Z,102452.75
2022-12-18T03:43:59.775Z,102447.78
2022-12-18T03:46:36.243Z,102458.66
2022-12-18T03:49:12.453Z,102443.34
2022-12-18T03:51:46.622Z,102444.09
2022-12-18T03:54:17.215Z,102445.00
2022-12-18T03:56:50.638Z,102451.06
2022-12-18T03:59:23.001Z,102443.78
2022-12-18T04:01:57.076Z,102446.38
2022-12-18T04:04:27.544Z,102451.53
2022-12-18T04:06:57.818Z,102442.16
2022-12-18T04:09:26.715Z,102430.81
2022-12-18T04:11:55.510Z,102440.38
2022-12-18T04:14:25.618Z,102430.28
2022-12-18T04:16:56.188Z,102419.41
2022-12-18T04:19:24.895Z,102420.78
2022-12-18T04:21:53.974Z,102421.66
2022-12-18T04:24:22.668Z,102430.03
2022-12-18T04:26:51.480Z,102433.34
2022-12-18T04:29:20.284Z,102426.59
2022-12-18T04:31:50.585Z,102422.78
2022-12-18T04:34:19.406Z,102424.63
2022-12-18T04:36:48.159Z,102420.78
2022-12-18T04:39:17.266Z,102412.78
2022-12-18T04:41:45.982Z,102416.72
2022-12-18T04:44:14.699Z,102415.13
2022-12-18T04:46:43.613Z,102410.31
2022-12-18T04:49:13.785Z,102412.78
2022-12-18T04:51:42.891Z,102409.81
2022-12-18T04:54:12.581Z,102416.97
2022-12-18T04:56:41.996Z,102409.81
2022-12-18T04:59:11.122Z,102407.84
2022-12-18T05:01:40.249Z,102399.84
2022-12-18T05:04:09.170Z,102400.81
2022-12-18T05:06:39.522Z,102392.81
2022-12-18T05:09:08.979Z,102394.78
2022-12-18T05:11:38.379Z,102399.06
2022-12-18T05:14:07.091Z,102401.69
2022-12-18T05:16:35.866Z,102401.78
2022-12-18T05:19:04.464Z,102400.47
2022-12-18T05:21:36.298Z,102398.94
2022-12-18T05:24:08.404Z,102393.66
2022-12-18T05:26:37.140Z,102387.59
2022-12-18T05:29:06.079Z,102388.84
2022-12-18T05:31:39.435Z,102397.97
2022-12-18T05:34:08.885Z,102398.47
2022-12-18T05:36:37.741Z,102399.56
2022-12-18T05:39:08.303Z,102406.50
2022-12-18T05:41:37.305Z,102398.84
2022-12-18T05:44:06.487Z,102401.94
2022-12-18T05:46:35.262Z,102413.50
2022-12-18T05:49:04.501Z,102417.69
2022-12-18T05:51:33.139Z,102419.41
2022-12-18T05:54:02.030Z,102436.44
2022-12-18T05:56:32.213Z,102434.25
2022-12-18T05:59:00.990Z,102440.91
2022-12-18T06:01:30.025Z,102443.63
2022-12-18T06:04:00.137Z,102439.16
2022-12-18T06:06:31.089Z,102440.53
2022-12-18T06:09:02.348Z,102446.97
2022-12-18T06:11:34.783Z,102458.41
2022-12-18T06:14:04.241Z,102464.44
2022-12-18T06:16:33.977Z,102474.53
2022-12-18T06:19:04.575Z,102474.06
2022-12-18T06:21:33.941Z,102464.69
2022-12-18T06:24:03.537Z,102473.44
2022-12-18T06:26:33.861Z,102467.78
2022-12-18T06:29:02.554Z,102462.25
2022-12-18T06:31:31.373Z,102453.59
2022-12-18T06:34:00.816Z,102443.97
2022-12-18T06:36:30.222Z,102438.78
2022-12-18T06:38:59.756Z,102438.06
2022-12-18T06:41:28.505Z,102434.72
2022-12-18T06:44:00.227Z,102433.63
2022-12-18T06:46:29.087Z,102429.69
2022-12-18T06:48:57.781Z,102418.44
2022-12-18T06:51:26.989Z,102420.94
2022-12-18T06:53:55.761Z,102418.31
2022-12-18T06:56:24.716Z,102406.38
2022-12-18T06:58:53.685Z,102400.47
2022-12-18T07:01:24.343Z,102395.88
2022-12-18T07:03:55.768Z,102386.75
2022-12-18T07:06:26.440Z,102394.16
2022-12-18T07:08:58.897Z,102396.38
2022-12-18T07:11:27.620Z,102406.38
2022-12-18T07:13:56.592Z,102405.13
2022-12-18T07:16:27.244Z,102402.03
2022-12-18T07:18:57.832Z,102413.50
2022-12-18T07:21:27.053Z,102405.50
2022-12-18T07:23:56.097Z,102413.41
2022-12-18T07:26:25.417Z,102410.06
2022-12-18T07:28:58.822Z,102396.38
2022-12-18T07:31:30.061Z,102392.53
2022-12-18T07:33:59.560Z,102395.38
2022-12-18T07:36:28.551Z,102383.16
2022-12-18T07:38:57.964Z,102392.88
2022-12-18T07:41:27.022Z,102399.44
2022-12-18T07:43:56.415Z,102388.59
2022-12-18T07:46:25.876Z,102385.78
2022-12-18T07:48:56.193Z,102396.72
2022-12-18T07:51:25.297Z,102407.81
2022-12-18T07:53:54.822Z,102408.34
2022-12-18T07:56:28.651Z,102403.06
2022-12-18T07:58:59.173Z,102387.22
2022-12-18T08:01:29.031Z,102392.84
2022-12-18T08:04:00.163Z,102387.06
2022-12-18T08:06:29.559Z,102379.41
2022-12-18T08:08:59.116Z,102375.84
2022-12-18T08:11:29.426Z,102370.97
2022-12-18T08:13:59.924Z,102368.81
2022-12-18T08:16:31.061Z,102363.41
2022-12-18T08:19:01.672Z,102360.16
2022-12-18T08:21:34.673Z,102364.25
2022-12-18T08:24:03.792Z,102359.94
2022-12-18T08:26:33.998Z,102354.31
2022-12-18T08:29:03.414Z,102348.34
2022-12-18T08:31:34.293Z,102332.44
2022-12-18T08:34:07.292Z,102335.44
2022-12-18T08:36:36.304Z,102336.72
2022-12-18T08:39:05.369Z,102340.72
2022-12-18T08:41:34.524Z,102337.00
2022-12-18T08:44:20.861Z,102342.47
2022-12-18T08:46:49.476Z,102346.13
2022-12-18T08:49:19.876Z,102351.22
2022-12-18T08:51:48.753Z,102342.09
2022-12-18T08:54:17.847Z,102337.50
2022-12-18T08:56:46.624Z,102344.59
2022-12-18T08:59:19.524Z,102343.28
2022-12-18T09:01:50.394Z,102342.47
2022-12-18T09:04:20.712Z,102338.78
2022-12-18T09:06:49.922Z,102329.75
2022-12-18T09:09:18.905Z,102321.44
2022-12-18T09:11:47.920Z,102320.81
2022-12-18T09:14:16.916Z,102318.63
2022-12-18T09:16:45.998Z,102318.50
2022-12-18T09:19:15.200Z,102320.16
2022-12-18T09:21:48.241Z,102329.53
2022-12-18T09:24:18.440Z,102323.91
2022-12-18T09:26:47.806Z,102321.47
2022-12-18T09:29:18.743Z,102321.94
2022-12-18T09:31:48.028Z,102325.09
2022-12-18T09:34:19.891Z,102330.28
2022-12-18T09:36:50.253Z,102324.88
2022-12-18T09:39:19.613Z,102331.16
2022-12-18T09:41:56.173Z,102330.91
2022-12-18T09:44:29.440Z,102311.88
2022-12-18T09:47:07.203Z,102299.47
2022-12-18T09:49:42.090Z,102292.66
2022-12-18T09:52:21.143Z,102291.44
2022-12-18T09:54:54.147Z,102295.66
2022-12-18T09:57:26.894Z,102285.19
2022-12-18T10:00:01.138Z,102294.03
2022-12-18T10:02:36.605Z,102303.88
2022-12-18T10:05:10.007Z,102295.38
2022-12-18T10:07:52.391Z,102289.84
2022-12-18T10:10:39.294Z,102281.59
2022-12-18T10:13:21.417Z,102285.91
2022-12-18T10:16:10.825Z,102290.47
2022-12-18T10:19:00.637Z,102302.00
2022-12-18T10:21:36.165Z,102282.69
2022-12-18T10:24:17.755Z,102268.13
2022-12-18T10:26:47.550Z,102267.00
2022-12-18T10:29:18.524Z,102263.06
2022-12-18T10:31:47.456Z,102253.97
2022-12-18T10:34:16.797Z,102261.28
2022-12-18T10:36:45.805Z,102253.53
2022-12-18T10:39:21.378Z,102261.97
2022-12-18T10:41:51.586Z,102268.22
2022-12-18T10:44:21.657Z,102253.31
2022-12-18T10:46:54.048Z,102253.56
2022-12-18T10:49:26.553Z,102239.72
2022-12-18T10:52:09.891Z,102227.09
2022-12-18T10:54:41.276Z,102209.88
2022-12-18T10:57:35.769Z,102223.31
2022-12-18T11:00:25.933Z,102219.41
2022-12-18T11:02:55.028Z,102212.38
2022-12-18T11:05:30.050Z,102208.69
2022-12-18T11:08:00.876Z,102208.44
2022-12-18T11:10:35.320Z,102216.44
2022-12-18T11:13:19.864Z,102210.19
2022-12-18T11:15:50.196Z,102214.31
2022-12-18T11:18:27.335Z,102203.88
2022-12-18T11:20:59.132Z,102198.88
2022-12-18T11:23:29.160Z,102209.06
2022-12-18T11:26:07.352Z,102213.06
2022-12-18T11:28:43.569Z,102202.34
2022-12-18T11:31:33.883Z,102187.75
2022-12-18T11:37:00.848Z,102169.28
2022-12-18T11:39:39.629Z,102157.75
2022-12-18T11:42:21.439Z,102162.78
2022-12-18T11:44:53.367Z,102160.91
2022-12-18T11:47:29.702Z,102159.59
2022-12-18T11:50:02.727Z,102148.34
2022-12-18T11:52:39.008Z,102159.06
2022-12-18T11:55:16.299Z,102156.50
2022-12-18T11:57:57.583Z,102151.44
2022-12-18T12:00:27.108Z,102156.88
2022-12-18T12:03:29.866Z,102154.97
2022-12-18T12:06:16.018Z,102151.56
2022-12-18T12:09:04.666Z,102149.16
2022-12-18T12:11:42.590Z,102147.44
2022-12-18T12:14:28.871Z,102146.66
2022-12-18T12:17:05.270Z,102146.06
2022-12-18T12:19:45.942Z,102146.81
2022-12-18T12:22:26.225Z,102142.44
2022-12-18T12:25:07.765Z,102121.13
2022-12-18T12:27:47.353Z,102119.66
2022-12-18T12:30:23.624Z,102125.94
2022-12-18T12:33:12.539Z,102125.25
2022-12-18T12:35:53.462Z,102122.53
2022-12-18T12:38:27.241Z,102120.81
2022-12-18T12:41:03.532Z,102116.66
2022-12-18T12:43:43.443Z,102117.56
2022-12-18T12:46:23.894Z,102112.22
2022-12-18T12:48:57.713Z,102109.53
2022-12-18T12:51:30.563Z,102106.88
2022-12-18T12:54:02.355Z,102115.16
2022-12-18T12:56:51.324Z,102112.19
2022-12-18T12:59:33.419Z,102119.19
2022-12-18T13:02:13.621Z,102128.16
2022-12-18T13:04:49.765Z,102122.13
2022-12-18T13:07:27.089Z,102118.16
2022-12-18T13:10:26.941Z,102115.88
2022-12-18T13:13:00.851Z,102102.69
2022-12-18T13:15:43.586Z,102096.31
2022-12-18T13:18:33.054Z,102085.63
2022-12-18T13:21:15.315Z,102077.09
2022-12-18T13:23:48.564Z,102082.31
2022-12-18T13:26:35.681Z,102080.38
2022-12-18T13:29:07.303Z,102073.53
2022-12-18T13:32:02.147Z,102069.16
2022-12-18T13:34:34.049Z,102057.47
2022-12-18T13:37:42.404Z,102047.09
2022-12-18T13:41:00.248Z,102046.22
2022-12-18T13:43:33.705Z,102045.09
2022-12-18T13:46:07.034Z,102038.09
2022-12-18T13:48:38.901Z,102043.09
2022-12-18T13:51:15.064Z,102032.84
2022-12-18T13:53:52.058Z,102031.41
2022-12-18T13:56:24.325Z,102032.34
2022-12-18T13:59:15.178Z,102035.06
2022-12-18T14:01:48.170Z,102028.06
2022-12-18T14:04:28.097Z,102023.31
2022-12-18T14:07:07.032Z,102020.06
2022-12-18T14:09:40.488Z,102022.53
2022-12-18T14:12:34.177Z,102024.53
2022-12-18T14:15:03.788Z,102021.44
2022-12-18T14:17:34.272Z,102020.38
2022-12-18T14:20:04.929Z,102012.50
2022-12-18T14:22:35.435Z,102012.28
2022-12-18T14:25:26.227Z,102007.25
2022-12-18T14:28:04.429Z,101993.97
2022-12-18T14:30:37.252Z,101990.56
2022-12-18T14:33:08.333Z,101986.91
2022-12-18T14:35:40.671Z,101996.00
2022-12-18T14:38:25.944Z,101991.41
2022-12-18T14:40:59.759Z,101979.44
2022-12-18T14:43:30.481Z,101995.16
2022-12-18T14:46:00.538Z,101989.25
2022-12-18T14:48:39.310Z,101991.75
2022-12-18T14:51:17.328Z,101985.44
2022-12-18T14:53:54.404Z,101984.16
2022-12-18T14:56:26.475Z,101970.66
2022-12-18T14:58:58.120Z,101973.84
2022-12-18T15:01:32.901Z,101977.09
2022-12-18T15:04:03.523Z,101973.47
2022-12-18T15:06:39.677Z,101981.09
2022-12-18T15:09:25.974Z,101973.31
2022-12-18T15:12:01.954Z,101975.56
2022-12-18T15:14:42.788Z,101961.88
2022-12-18T15:17:20.230Z,101970.78
2022-12-18T15:19:51.142Z,101965.28
2022-12-18T15:22:27.204Z,101969.78
2022-12-18T15:24:59.061Z,101964.38
2022-12-18T15:27:31.822Z,101955.66
2022-12-18T15:30:20.354Z,101949.25
2022-12-18T15:32:50.344Z,101951.13
2022-12-18T15:35:22.499Z,101949.38
2022-12-18T15:37:52.578Z,101955.94
2022-12-18T15:40:25.228Z,101957.66
2022-12-18T15:43:14.073Z,101955.94
2022-12-18T15:45:42.941Z,101945.81
2022-12-18T15:48:23.708Z,101959.38
2022-12-18T15:50:56.682Z,101960.91
2022-12-18T15:53:26.390Z,101960.41
2022-12-18T15:56:14.512Z,101958.44
2022-12-18T15:58:43.424Z,101963.38
2022-12-18T16:01:13.174Z,101952.28
2022-12-18T16:03:42.870Z,101963.72
2022-12-18T16:06:13.421Z,101963.81
2022-12-18T16:08:42.750Z,101962.16
2022-12-18T16:11:38.893Z,101961.47
2022-12-18T16:14:15.055Z,101960.53
2022-12-18T16:16:45.443Z,101974.72
2022-12-18T16:19:14.476Z,101974.06
2022-12-18T16:21:44.833Z,101966.59
2022-12-18T16:24:18.450Z,101967.22
2022-12-18T16:26:50.005Z,101966.41
2022-12-18T16:29:19.359Z,101961.97
2022-12-18T16:31:48.801Z,101970.88
2022-12-18T16:34:23.217Z,101964.22
2022-12-18T16:37:00.308Z,101951.09
2022-12-18T16:39:35.373Z,101957.63
2022-12-18T16:42:11.309Z,101950.06
2022-12-18T16:44:41.522Z,101951.97
2022-12-18T16:47:13.279Z,101945.19
2022-12-18T16:49:46.220Z,101937.25
2022-12-18T16:52:15.573Z,101945.16
2022-12-18T16:54:44.965Z,101944.28
2022-12-18T16:57:25.165Z,101936.56
2022-12-18T16:59:59.889Z,101929.03
2022-12-18T17:02:32.494Z,101925.06
2022-12-18T17:05:05.016Z,101927.19
2022-12-18T17:07:33.835Z,101918.94
2022-12-18T17:10:04.743Z,101908.59
2022-12-18T17:12:37.385Z,101916.66
2022-12-18T17:15:07.740Z,101911.34
2022-12-18T17:17:37.128Z,101906.72
2022-12-18T17:20:06.782Z,101902.31
2022-12-18T17:22:35.479Z,101908.03
2022-12-18T17:25:04.427Z,101906.59
2022-12-18T17:27:35.235Z,101909.84
2022-12-18T17:30:04.849Z,101905.03
2022-12-18T17:32:33.711Z,101901.16
2022-12-18T17:35:07.008Z,101892.75
2022-12-18T17:37:36.468Z,101896.69
2022-12-18T17:40:06.769Z,101891.81
2022-12-18T17:42:37.116Z,101899.81
2022-12-18T17:45:08.147Z,101890.34
2022-12-18T17:47:37.599Z,101906.59
2022-12-18T17:50:07.273Z,101909.28
2022-12-18T17:52:36.592Z,101917.16
2022-12-18T17:55:05.589Z,101917.66
2022-12-18T17:57:38.103Z,101920.97
2022-12-18T18:00:07.826Z,101926.66
2022-12-18T18:02:37.321Z,101926.84
2022-12-18T18:05:06.737Z,101921.44
2022-12-18T18:07:36.729Z,101920.13
2022-12-18T18:10:08.243Z,101915.47
2022-12-18T18:12:55.872Z,101923.88
2022-12-18T18:15:24.969Z,101910.47
2022-12-18T18:17:53.693Z,101915.88
2022-12-18T18:20:22.938Z,101924.47
2022-12-18T18:22:52.378Z,101938.69
2022-12-18T18:25:21.865Z,101933.47
2022-12-18T18:27:52.415Z,101931.28
2022-12-18T18:30:21.257Z,101929.44
2022-12-18T18:32:50.436Z,101918.38
2022-12-18T18:35:52.516Z,101932.31
2022-12-18T18:38:10.785Z,101929.78
2022-12-18T18:40:39.800Z,101926.78
2022-12-18T18:43:11.330Z,101932.13
2022-12-18T18:45:40.769Z,101936.66
2022-12-18T18:48:11.453Z,101929.66
2022-12-18T18:50:40.404Z,101929.91
2022-12-18T18:53:09.162Z,101927.13
2022-12-18T18:55:38.793Z,101929.03
2022-12-18T18:58:09.143Z,101936.13
2022-12-18T19:00:39.625Z,101921.38
2022-12-18T19:03:11.119Z,101928.44
2022-12-18T19:05:43.046Z,101919.13
2022-12-18T19:08:14.984Z,101921.19
2022-12-18T19:10:44.213Z,101912.94
2022-12-18T19:13:24.924Z,101919.31
2022-12-18T19:15:56.058Z,101918.47
2022-12-18T19:18:26.054Z,101912.28
2022-12-18T19:21:00.834Z,101925.47
2022-12-18T19:23:32.040Z,101912.44
2022-12-18T19:26:27.054Z,101916.53
2022-12-18T19:28:53.025Z,101921.63
2022-12-18T19:31:26.181Z,101906.47
2022-12-18T19:33:57.520Z,101907.75
2022-12-18T19:36:28.981Z,101902.31
2022-12-18T19:39:00.811Z,101901.97
2022-12-18T19:41:31.473Z,101897.38
2022-12-18T19:44:07.574Z,101900.41
2022-12-18T19:46:41.679Z,101901.28
2022-12-18T19:49:11.988Z,101896.78
2022-12-18T19:51:50.737Z,101897.63
2022-12-18T19:54:21.403Z,101891.53
2022-12-18T19:56:53.025Z,101887.16
2022-12-18T19:59:26.687Z,101892.53
2022-12-18T20:01:56.719Z,101889.94
2022-12-18T20:04:25.952Z,101898.75
2022-12-18T20:06:55.755Z,101899.16
2022-12-18T20:09:24.927Z,101904.91
2022-12-18T20:11:55.952Z,101914.16
2022-12-18T20:14:26.674Z,101916.28
2022-12-18T20:17:00.422Z,101910.72
2022-12-18T20:21:55.689Z,101913.47
2022-12-18T20:24:24.208Z,101920.22
2022-12-18T20:26:52.886Z,101918.66
2022-12-18T20:29:21.411Z,101901.34
2022-12-18T20:31:51.360Z,101903.03
2022-12-18T20:34:19.955Z,101901.78
2022-12-18T20:36:49.069Z,101913.16
2022-12-18T20:39:18.503Z,101911.38
2022-12-18T20:41:47.789Z,101903.25
2022-12-18T20:44:23.193Z,101904.19
2022-12-18T20:46:56.389Z,101905.91
2022-12-18T20:49:25.715Z,101905.91
2022-12-18T20:51:56.395Z,101913.66
2022-12-18T20:54:27.206Z,101917.41
2022-12-18T20:56:55.913Z,101913.72
2022-12-18T20:59:25.570Z,101918.13
2022-12-18T21:01:55.754Z,101921.78
2022-12-18T21:04:25.085Z,101929.38
2022-12-18T21:06:57.945Z,101918.72
2022-12-18T21:09:30.376Z,101919.16
2022-12-18T21:12:25.803Z,101925.94
2022-12-18T21:14:54.480Z,101913.25
2022-12-18T21:17:24.432Z,101910.47
2022-12-18T21:19:55.482Z,101907.94
2022-12-18T21:22:24.034Z,101901.66
2022-12-18T21:24:52.830Z,101904.25
2022-12-18T21:27:21.402Z,101903.72
2022-12-18T21:29:49.940Z,101900.34
2022-12-18T21:32:20.319Z,101898.84
2022-12-18T21:34:51.975Z,101905.50
2022-12-18T21:37:20.533Z,101908.19
2022-12-18T21:39:49.088Z,101917.31
2022-12-18T21:42:35.313Z,101900.84
2022-12-18T21:45:03.882Z,101903.03
2022-12-18T21:47:32.458Z,101905.81
2022-12-18T21:50:02.466Z,101887.44
2022-12-18T21:52:32.549Z,101893.66
2022-12-18T21:55:08.601Z,101890.91
2022-12-18T21:57:39.638Z,101884.25
2022-12-18T22:00:12.515Z,101887.72
2022-12-18T22:02:48.864Z,101879.00
2022-12-18T22:05:38.379Z,101871.13
2022-12-18T22:08:07.753Z,101866.59
2022-12-18T22:10:36.841Z,101867.47
2022-12-18T22:13:05.663Z,101852.31
2022-12-18T22:15:34.558Z,101852.75
2022-12-18T22:18:03.168Z,101850.34
2022-12-18T22:20:31.726Z,101842.13
2022-12-18T22:23:05.967Z,101844.22
2022-12-18T22:25:35.232Z,101842.94
2022-12-18T22:28:23.593Z,101837.47
2022-12-18T22:30:53.385Z,101844.53
2022-12-18T22:33:28.678Z,101825.44
2022-12-18T22:35:57.191Z,101830.72
2022-12-18T22:38:27.116Z,101825.50
2022-12-18T22:40:56.563Z,101825.41
2022-12-18T22:43:25.164Z,101815.34
2022-12-18T22:45:53.696Z,101816.22
2022-12-18T22:48:22.605Z,101812.88
2022-12-18T22:50:51.150Z,101804.63
2022-12-18T22:53:25.850Z,101815.34
2022-12-18T22:56:00.952Z,101807.72
2022-12-18T22:58:29.467Z,101796.00
2022-12-18T23:00:57.955Z,101804.22
2022-12-18T23:03:26.630Z,101787.75
2022-12-18T23:06:02.627Z,101779.47
2022-12-18T23:08:32.951Z,101779.97
2022-12-18T23:11:01.461Z,101778.34
2022-12-18T23:13:30.321Z,101766.47
2022-12-18T23:15:58.852Z,101765.88
2022-12-18T23:18:27.665Z,101757.47
2022-12-18T23:20:56.178Z,101758.63
2022-12-18T23:23:24.685Z,101751.06
2022-12-18T23:26:02.449Z,101755.03
2022-12-18T23:28:32.120Z,101747.59
2022-12-18T23:31:06.562Z,101746.06
2022-12-18T23:33:35.411Z,101740.34
2022-12-18T23:36:05.144Z,101738.47
2022-12-18T23:38:34.687Z,101739.91
2022-12-18T23:41:09.016Z,101743.59
2022-12-18T23:43:37.806Z,101731.75
2022-12-18T23:46:13.198Z,101729.06
2022-12-18T23:48:42.016Z,101718.88
2022-12-18T23:51:12.039Z,101717.16
2022-12-18T23:53:40.895Z,101721.91
2022-12-18T23:56:12.041Z,101709.06
2022-12-18T23:58:40.813Z,101693.63
